sensor_id;sensor_type;location;lat;lon;timestamp;pressure;altitude;pressure_sealevel;temperature;humidity
72061;BME280;59925;52.136;5.420;2023-04-06T00:01:50;102025.41;;;1.45;73.02
72061;BME280;59925;52.136;5.420;2023-04-06T00:04:17;102024.78;;;1.43;73.47
72061;BME280;59925;52.136;5.420;2023-04-06T00:06:43;102022.31;;;1.42;73.62
72061;BME280;59925;52.136;5.420;2023-04-06T00:09:10;102017.38;;;1.38;73.54
72061;BME280;59925;52.136;5.420;2023-04-06T00:11:36;102016.38;;;1.40;74.08
72061;BME280;59925;52.136;5.420;2023-04-06T00:14:03;102013.94;;;1.38;73.85
72061;BME280;59925;52.136;5.420;2023-04-06T00:16:29;102010.25;;;1.39;74.09
72061;BME280;59925;52.136;5.420;2023-04-06T00:18:56;102008.91;;;1.43;73.31
72061;BME280;59925;52.136;5.420;2023-04-06T00:21:22;102009.22;;;1.48;73.85
72061;BME280;59925;52.136;5.420;2023-04-06T00:23:49;102008.84;;;1.51;73.55
72061;BME280;59925;52.136;5.420;2023-04-06T00:26:15;102009.22;;;1.48;73.89
72061;BME280;59925;52.136;5.420;2023-04-06T00:28:41;102002.97;;;1.41;73.76
72061;BME280;59925;52.136;5.420;2023-04-06T00:31:08;102007.16;;;1.35;74.04
72061;BME280;59925;52.136;5.420;2023-04-06T00:33:34;101999.50;;;1.26;74.31
72061;BME280;59925;52.136;5.420;2023-04-06T00:36:01;101995.38;;;1.23;74.57
72061;BME280;59925;52.136;5.420;2023-04-06T00:38:27;101994.22;;;1.26;74.28
72061;BME280;59925;52.136;5.420;2023-04-06T00:40:54;101990.94;;;1.24;74.45
72061;BME280;59925;52.136;5.420;2023-04-06T00:43:20;101990.28;;;1.21;74.33
72061;BME280;59925;52.136;5.420;2023-04-06T00:45:47;101986.81;;;1.21;74.69
72061;BME280;59925;52.136;5.420;2023-04-06T00:48:14;101983.16;;;1.22;74.60
72061;BME280;59925;52.136;5.420;2023-04-06T00:50:40;101979.88;;;1.20;74.65
72061;BME280;59925;52.136;5.420;2023-04-06T00:53:07;101972.97;;;1.19;74.87
72061;BME280;59925;52.136;5.420;2023-04-06T00:55:33;101968.97;;;1.23;74.75
72061;BME280;59925;52.136;5.420;2023-04-06T00:58:02;101972.06;;;1.27;74.59
72061;BME280;59925;52.136;5.420;2023-04-06T01:00:28;101967.81;;;1.26;74.76
72061;BME280;59925;52.136;5.420;2023-04-06T01:02:55;101972.16;;;1.18;74.92
72061;BME280;59925;52.136;5.420;2023-04-06T01:05:21;101963.31;;;1.11;75.05
72061;BME280;59925;52.136;5.420;2023-04-06T01:07:48;101960.38;;;1.06;75.19
72061;BME280;59925;52.136;5.420;2023-04-06T01:10:25;101961.91;;;1.00;75.84
72061;BME280;59925;52.136;5.420;2023-04-06T01:12:51;101962.44;;;0.96;75.61
72061;BME280;59925;52.136;5.420;2023-04-06T01:15:19;101956.97;;;0.97;75.79
72061;BME280;59925;52.136;5.420;2023-04-06T01:17:46;101956.31;;;0.95;75.88
72061;BME280;59925;52.136;5.420;2023-04-06T01:20:12;101947.41;;;0.96;76.24
72061;BME280;59925;52.136;5.420;2023-04-06T01:22:39;101947.41;;;0.96;76.23
72061;BME280;59925;52.136;5.420;2023-04-06T01:25:06;101941.31;;;0.96;76.54
72061;BME280;59925;52.136;5.420;2023-04-06T01:27:33;101942.41;;;1.01;76.45
72061;BME280;59925;52.136;5.420;2023-04-06T01:30:00;101943.53;;;1.07;76.42
72061;BME280;59925;52.136;5.420;2023-04-06T01:32:26;101931.13;;;1.07;76.32
72061;BME280;59925;52.136;5.420;2023-04-06T01:34:53;101939.88;;;1.08;76.68
72061;BME280;59925;52.136;5.420;2023-04-06T01:37:21;101930.97;;;1.09;76.69
72061;BME280;59925;52.136;5.420;2023-04-06T01:39:47;101934.06;;;1.13;76.89
72061;BME280;59925;52.136;5.420;2023-04-06T01:42:14;101922.94;;;1.17;76.80
72061;BME280;59925;52.136;5.420;2023-04-06T01:44:40;101917.78;;;1.24;76.62
72061;BME280;59925;52.136;5.420;2023-04-06T01:47:06;101923.34;;;1.29;76.68
72061;BME280;59925;52.136;5.420;2023-04-06T01:49:33;101909.31;;;1.29;76.71
72061;BME280;59925;52.136;5.420;2023-04-06T01:52:00;101908.50;;;1.28;77.11
72061;BME280;59925;52.136;5.420;2023-04-06T01:54:26;101908.50;;;1.28;76.97
72061;BME280;59925;52.136;5.420;2023-04-06T01:56:53;101908.66;;;1.27;76.73
72061;BME280;59925;52.136;5.420;2023-04-06T01:59:19;101905.00;;;1.28;76.93
72061;BME280;59925;52.136;5.420;2023-04-06T02:01:46;101905.66;;;1.30;77.21
72061;BME280;59925;52.136;5.420;2023-04-06T02:04:12;101903.66;;;1.32;77.36
72061;BME280;59925;52.136;5.420;2023-04-06T02:06:40;101898.81;;;1.35;77.11
72061;BME280;59925;52.136;5.420;2023-04-06T02:09:06;101891.09;;;1.34;77.11
72061;BME280;59925;52.136;5.420;2023-04-06T02:11:33;101887.25;;;1.36;77.35
72061;BME280;59925;52.136;5.420;2023-04-06T02:13:59;101881.81;;;1.38;77.42
72061;BME280;59925;52.136;5.420;2023-04-06T02:16:27;101887.72;;;1.40;77.78
72061;BME280;59925;52.136;5.420;2023-04-06T02:18:53;101888.19;;;1.44;77.81
72061;BME280;59925;52.136;5.420;2023-04-06T02:21:20;101879.88;;;1.47;77.43
72061;BME280;59925;52.136;5.420;2023-04-06T02:23:47;101876.22;;;1.48;77.53
72061;BME280;59925;52.136;5.420;2023-04-06T02:26:14;101874.59;;;1.47;77.21
72061;BME280;59925;52.136;5.420;2023-04-06T02:28:41;101873.59;;;1.48;77.50
72061;BME280;59925;52.136;5.420;2023-04-06T02:31:08;101872.44;;;1.50;77.77
72061;BME280;59925;52.136;5.420;2023-04-06T02:33:35;101869.59;;;1.52;77.79
72061;BME280;59925;52.136;5.420;2023-04-06T02:36:01;101869.03;;;1.57;77.54
72061;BME280;59925;52.136;5.420;2023-04-06T02:38:28;101871.50;;;1.58;77.56
72061;BME280;59925;52.136;5.420;2023-04-06T02:40:54;101872.97;;;1.61;77.88
72061;BME280;59925;52.136;5.420;2023-04-06T02:43:20;101868.13;;;1.64;77.51
72061;BME280;59925;52.136;5.420;2023-04-06T02:45:47;101867.75;;;1.67;77.87
72061;BME280;59925;52.136;5.420;2023-04-06T02:48:13;101866.19;;;1.73;77.69
72061;BME280;59925;52.136;5.420;2023-04-06T02:50:40;101863.19;;;1.76;77.72
72061;BME280;59925;52.136;5.420;2023-04-06T02:53:07;101848.41;;;1.82;77.53
72061;BME280;59925;52.136;5.420;2023-04-06T02:55:33;101852.50;;;1.84;77.34
72061;BME280;59925;52.136;5.420;2023-04-06T02:58:00;101843.75;;;1.84;77.48
72061;BME280;59925;52.136;5.420;2023-04-06T03:00:26;101841.91;;;1.84;77.83
72061;BME280;59925;52.136;5.420;2023-04-06T03:02:53;101842.75;;;1.85;77.55
72061;BME280;59925;52.136;5.420;2023-04-06T03:05:19;101844.19;;;1.88;77.74
72061;BME280;59925;52.136;5.420;2023-04-06T03:07:46;101834.88;;;1.92;77.50
72061;BME280;59925;52.136;5.420;2023-04-06T03:10:12;101835.97;;;1.97;77.26
72061;BME280;59925;52.136;5.420;2023-04-06T03:12:39;101831.56;;;2.05;77.27
72061;BME280;59925;52.136;5.420;2023-04-06T03:15:08;101832.81;;;2.09;76.54
72061;BME280;59925;52.136;5.420;2023-04-06T03:17:35;101833.00;;;2.07;77.21
72061;BME280;59925;52.136;5.420;2023-04-06T03:20:01;101835.47;;;2.09;77.33
72061;BME280;59925;52.136;5.420;2023-04-06T03:22:28;101825.69;;;2.09;77.12
72061;BME280;59925;52.136;5.420;2023-04-06T03:24:55;101830.63;;;2.12;77.13
72061;BME280;59925;52.136;5.420;2023-04-06T03:27:21;101822.09;;;2.17;76.88
72061;BME280;59925;52.136;5.420;2023-04-06T03:29:48;101825.03;;;2.22;77.11
72061;BME280;59925;52.136;5.420;2023-04-06T03:32:14;101816.31;;;2.28;76.28
72061;BME280;59925;52.136;5.420;2023-04-06T03:34:41;101818.84;;;2.37;76.52
72061;BME280;59925;52.136;5.420;2023-04-06T03:37:07;101818.91;;;2.43;76.30
72061;BME280;59925;52.136;5.420;2023-04-06T03:39:36;101813.84;;;2.49;75.56
72061;BME280;59925;52.136;5.420;2023-04-06T03:42:02;101811.44;;;2.54;75.02
72061;BME280;59925;52.136;5.420;2023-04-06T03:44:29;101814.31;;;2.59;75.45
72061;BME280;59925;52.136;5.420;2023-04-06T03:46:56;101809.06;;;2.66;74.76
72061;BME280;59925;52.136;5.420;2023-04-06T03:49:22;101810.59;;;2.75;73.77
72061;BME280;59925;52.136;5.420;2023-04-06T03:51:49;101808.16;;;2.80;73.22
72061;BME280;59925;52.136;5.420;2023-04-06T03:54:15;101805.97;;;2.84;72.87
72061;BME280;59925;52.136;5.420;2023-04-06T03:56:42;101804.88;;;2.78;72.86
72061;BME280;59925;52.136;5.420;2023-04-06T03:59:08;101801.22;;;2.79;72.99
72061;BME280;59925;52.136;5.420;2023-04-06T04:01:35;101802.47;;;2.83;72.50
72061;BME280;59925;52.136;5.420;2023-04-06T04:04:02;101804.56;;;2.88;71.95
72061;BME280;59925;52.136;5.420;2023-04-06T04:06:28;101798.28;;;2.96;71.13
72061;BME280;59925;52.136;5.420;2023-04-06T04:08:56;101797.53;;;3.02;70.78
72061;BME280;59925;52.136;5.420;2023-04-06T04:11:22;101806.50;;;3.08;69.96
72061;BME280;59925;52.136;5.420;2023-04-06T04:13:48;101794.31;;;3.13;69.80
72061;BME280;59925;52.136;5.420;2023-04-06T04:16:15;101792.28;;;3.15;68.91
72061;BME280;59925;52.136;5.420;2023-04-06T04:18:42;101797.59;;;3.15;68.87
72061;BME280;59925;52.136;5.420;2023-04-06T04:21:09;101794.75;;;3.17;68.83
72061;BME280;59925;52.136;5.420;2023-04-06T04:23:36;101791.88;;;3.18;68.71
72061;BME280;59925;52.136;5.420;2023-04-06T04:26:03;101796.16;;;3.19;68.94
72061;BME280;59925;52.136;5.420;2023-04-06T04:28:29;101791.06;;;3.18;68.66
72061;BME280;59925;52.136;5.420;2023-04-06T04:30:56;101799.22;;;3.16;68.11
72061;BME280;59925;52.136;5.420;2023-04-06T04:33:22;101795.75;;;3.16;68.32
72061;BME280;59925;52.136;5.420;2023-04-06T04:35:49;101790.66;;;3.14;68.24
72061;BME280;59925;52.136;5.420;2023-04-06T04:38:16;101793.47;;;3.13;68.05
72061;BME280;59925;52.136;5.420;2023-04-06T04:40:42;101800.00;;;3.10;68.14
72061;BME280;59925;52.136;5.420;2023-04-06T04:43:09;101802.03;;;3.08;68.43
72061;BME280;59925;52.136;5.420;2023-04-06T04:45:35;101795.09;;;3.07;68.17
72061;BME280;59925;52.136;5.420;2023-04-06T04:48:02;101795.09;;;3.07;68.30
72061;BME280;59925;52.136;5.420;2023-04-06T04:50:28;101786.34;;;3.06;68.96
72061;BME280;59925;52.136;5.420;2023-04-06T04:52:55;101795.91;;;3.08;68.78
72061;BME280;59925;52.136;5.420;2023-04-06T04:55:21;101792.44;;;3.07;68.90
72061;BME280;59925;52.136;5.420;2023-04-06T04:57:48;101785.94;;;3.10;69.16
72061;BME280;59925;52.136;5.420;2023-04-06T05:00:14;101795.31;;;3.12;69.22
72061;BME280;59925;52.136;5.420;2023-04-06T05:02:41;101789.81;;;3.14;68.90
72061;BME280;59925;52.136;5.420;2023-04-06T05:05:08;101787.81;;;3.16;68.55
72061;BME280;59925;52.136;5.420;2023-04-06T05:07:34;101793.50;;;3.19;68.81
72061;BME280;59925;52.136;5.420;2023-04-06T05:10:01;101784.56;;;3.20;68.53
72061;BME280;59925;52.136;5.420;2023-04-06T05:12:28;101786.00;;;3.23;68.64
72061;BME280;59925;52.136;5.420;2023-04-06T05:14:55;101789.09;;;3.27;68.61
72061;BME280;59925;52.136;5.420;2023-04-06T05:17:22;101782.56;;;3.29;68.06
72061;BME280;59925;52.136;5.420;2023-04-06T05:19:48;101780.78;;;3.36;68.17
72061;BME280;59925;52.136;5.420;2023-04-06T05:22:15;101782.81;;;3.41;67.77
72061;BME280;59925;52.136;5.420;2023-04-06T05:24:43;101783.03;;;3.46;67.92
72061;BME280;59925;52.136;5.420;2023-04-06T05:27:10;101781.41;;;3.52;67.55
72061;BME280;59925;52.136;5.420;2023-04-06T05:29:36;101780.84;;;3.57;67.51
72061;BME280;59925;52.136;5.420;2023-04-06T05:32:03;101780.03;;;3.63;67.25
72061;BME280;59925;52.136;5.420;2023-04-06T05:34:30;101776.59;;;3.69;67.70
72061;BME280;59925;52.136;5.420;2023-04-06T05:36:57;101778.25;;;3.77;67.12
72061;BME280;59925;52.136;5.420;2023-04-06T05:39:23;101779.47;;;3.81;67.33
72061;BME280;59925;52.136;5.420;2023-04-06T05:41:50;101774.56;;;3.84;67.41
72061;BME280;59925;52.136;5.420;2023-04-06T05:44:16;101779.09;;;3.91;66.58
72061;BME280;59925;52.136;5.420;2023-04-06T05:46:43;101772.16;;;3.96;67.10
72061;BME280;59925;52.136;5.420;2023-04-06T05:49:09;101775.44;;;4.05;67.21
72061;BME280;59925;52.136;5.420;2023-04-06T05:51:36;101767.09;;;4.15;66.68
72061;BME280;59925;52.136;5.420;2023-04-06T05:54:02;101761.97;;;4.34;66.78
72061;BME280;59925;52.136;5.420;2023-04-06T05:56:29;101763.59;;;4.41;65.46
72061;BME280;59925;52.136;5.420;2023-04-06T05:58:56;101761.78;;;4.35;65.13
72061;BME280;59925;52.136;5.420;2023-04-06T06:01:23;101767.09;;;4.35;65.70
72061;BME280;59925;52.136;5.420;2023-04-06T06:03:49;101767.28;;;4.40;65.44
72061;BME280;59925;52.136;5.420;2023-04-06T06:06:16;101764.00;;;4.45;65.99
72061;BME280;59925;52.136;5.420;2023-04-06T06:08:42;101755.84;;;4.47;65.52
72061;BME280;59925;52.136;5.420;2023-04-06T06:11:09;101758.28;;;4.48;65.58
72061;BME280;59925;52.136;5.420;2023-04-06T06:13:35;101763.19;;;4.51;65.35
72061;BME280;59925;52.136;5.420;2023-04-06T06:16:02;101761.56;;;4.57;65.45
72061;BME280;59925;52.136;5.420;2023-04-06T06:18:31;101757.47;;;4.68;65.41
72061;BME280;59925;52.136;5.420;2023-04-06T06:20:58;101766.00;;;4.70;65.42
72061;BME280;59925;52.136;5.420;2023-04-06T06:23:25;101756.22;;;4.64;65.26
72061;BME280;59925;52.136;5.420;2023-04-06T06:25:51;101758.09;;;4.63;65.23
72061;BME280;59925;52.136;5.420;2023-04-06T06:28:17;101753.78;;;4.62;65.52
72061;BME280;59925;52.136;5.420;2023-04-06T06:30:44;101754.59;;;4.63;65.78
72061;BME280;59925;52.136;5.420;2023-04-06T06:33:12;101757.03;;;4.64;65.68
72061;BME280;59925;52.136;5.420;2023-04-06T06:35:38;101754.38;;;4.64;65.52
72061;BME280;59925;52.136;5.420;2023-04-06T06:38:05;101760.28;;;4.73;65.88
72061;BME280;59925;52.136;5.420;2023-04-06T06:40:31;101766.44;;;4.80;65.55
72061;BME280;59925;52.136;5.420;2023-04-06T06:42:58;101756.81;;;4.86;66.25
72061;BME280;59925;52.136;5.420;2023-04-06T06:45:24;101752.88;;;4.95;65.72
72061;BME280;59925;52.136;5.420;2023-04-06T06:47:51;101758.38;;;5.07;65.72
72061;BME280;59925;52.136;5.420;2023-04-06T06:50:21;101752.41;;;5.18;65.83
72061;BME280;59925;52.136;5.420;2023-04-06T06:52:47;101759.09;;;5.34;65.76
72061;BME280;59925;52.136;5.420;2023-04-06T06:55:13;101760.72;;;5.35;65.25
72061;BME280;59925;52.136;5.420;2023-04-06T06:57:41;101764.75;;;5.45;64.75
72061;BME280;59925;52.136;5.420;2023-04-06T07:00:09;101765.13;;;5.55;64.66
72061;BME280;59925;52.136;5.420;2023-04-06T07:02:39;101752.19;;;5.65;65.00
72061;BME280;59925;52.136;5.420;2023-04-06T07:05:06;101764.63;;;5.72;64.55
72061;BME280;59925;52.136;5.420;2023-04-06T07:07:52;101758.88;;;5.75;64.42
72061;BME280;59925;52.136;5.420;2023-04-06T07:10:19;101757.16;;;5.87;64.91
72061;BME280;59925;52.136;5.420;2023-04-06T07:12:45;101748.75;;;5.90;64.50
72061;BME280;59925;52.136;5.420;2023-04-06T07:15:12;101747.13;;;5.89;64.51
72061;BME280;59925;52.136;5.420;2023-04-06T07:17:39;101749.31;;;5.99;64.27
72061;BME280;59925;52.136;5.420;2023-04-06T07:20:07;101746.47;;;6.01;63.81
72061;BME280;59925;52.136;5.420;2023-04-06T07:22:34;101745.22;;;5.96;62.69
72061;BME280;59925;52.136;5.420;2023-04-06T07:25:00;101738.88;;;5.97;62.97
72061;BME280;59925;52.136;5.420;2023-04-06T07:27:27;101747.88;;;5.96;62.80
72061;BME280;59925;52.136;5.420;2023-04-06T07:29:53;101738.06;;;5.97;62.49
72061;BME280;59925;52.136;5.420;2023-04-06T07:32:20;101735.00;;;6.00;62.80
72061;BME280;59925;52.136;5.420;2023-04-06T07:34:46;101740.72;;;6.04;62.36
72061;BME280;59925;52.136;5.420;2023-04-06T07:37:13;101738.84;;;6.04;62.21
72061;BME280;59925;52.136;5.420;2023-04-06T07:39:39;101735.16;;;6.05;62.03
72061;BME280;59925;52.136;5.420;2023-04-06T07:42:06;101738.41;;;6.07;62.10
72061;BME280;59925;52.136;5.420;2023-04-06T07:44:33;101740.22;;;6.13;62.17
72061;BME280;59925;52.136;5.420;2023-04-06T07:46:59;101743.22;;;6.24;61.94
72061;BME280;59925;52.136;5.420;2023-04-06T07:49:26;101742.19;;;6.25;61.84
72061;BME280;59925;52.136;5.420;2023-04-06T07:51:53;101732.13;;;6.27;61.78
72061;BME280;59925;52.136;5.420;2023-04-06T07:54:20;101736.56;;;6.33;61.91
72061;BME280;59925;52.136;5.420;2023-04-06T07:56:46;101737.41;;;6.34;61.66
72061;BME280;59925;52.136;5.420;2023-04-06T07:59:13;101736.72;;;6.38;61.63
72061;BME280;59925;52.136;5.420;2023-04-06T08:01:39;101742.59;;;6.47;61.59
72061;BME280;59925;52.136;5.420;2023-04-06T08:04:06;101739.94;;;6.47;61.31
72061;BME280;59925;52.136;5.420;2023-04-06T08:06:33;101745.63;;;6.51;60.87
72061;BME280;59925;52.136;5.420;2023-04-06T08:09:02;101746.19;;;6.59;61.02
72061;BME280;59925;52.136;5.420;2023-04-06T08:11:29;101748.53;;;6.68;61.27
72061;BME280;59925;52.136;5.420;2023-04-06T08:13:56;101747.59;;;6.81;61.08
72061;BME280;59925;52.136;5.420;2023-04-06T08:16:23;101741.44;;;6.80;60.43
72061;BME280;59925;52.136;5.420;2023-04-06T08:18:50;101741.69;;;6.79;60.41
72061;BME280;59925;52.136;5.420;2023-04-06T08:21:17;101739.75;;;6.86;60.68
72061;BME280;59925;52.136;5.420;2023-04-06T08:23:44;101745.81;;;6.93;60.66
72061;BME280;59925;52.136;5.420;2023-04-06T08:26:12;101736.47;;;7.02;60.74
72061;BME280;59925;52.136;5.420;2023-04-06T08:28:38;101739.16;;;7.02;60.73
72061;BME280;59925;52.136;5.420;2023-04-06T08:31:05;101735.56;;;7.09;60.91
72061;BME280;59925;52.136;5.420;2023-04-06T08:33:33;101735.13;;;7.12;60.84
72061;BME280;59925;52.136;5.420;2023-04-06T08:36:10;101735.41;;;7.22;61.04
72061;BME280;59925;52.136;5.420;2023-04-06T08:38:36;101740.00;;;7.33;60.61
72061;BME280;59925;52.136;5.420;2023-04-06T08:41:07;101729.91;;;7.35;60.92
72061;BME280;59925;52.136;5.420;2023-04-06T08:43:41;101727.38;;;7.41;60.61
72061;BME280;59925;52.136;5.420;2023-04-06T08:46:08;101719.66;;;7.51;60.83
72061;BME280;59925;52.136;5.420;2023-04-06T08:48:38;101728.84;;;7.55;60.68
72061;BME280;59925;52.136;5.420;2023-04-06T08:51:05;101730.47;;;7.56;60.84
72061;BME280;59925;52.136;5.420;2023-04-06T08:53:32;101727.91;;;7.61;60.68
72061;BME280;59925;52.136;5.420;2023-04-06T08:55:59;101721.69;;;7.67;60.34
72061;BME280;59925;52.136;5.420;2023-04-06T08:58:28;101721.81;;;7.73;60.74
72061;BME280;59925;52.136;5.420;2023-04-06T09:01:07;101724.38;;;7.79;60.38
72061;BME280;59925;52.136;5.420;2023-04-06T09:03:40;101725.69;;;7.89;60.84
72061;BME280;59925;52.136;5.420;2023-04-06T09:06:08;101728.69;;;7.92;60.51
72061;BME280;59925;52.136;5.420;2023-04-06T09:08:37;101726.47;;;7.89;59.97
72061;BME280;59925;52.136;5.420;2023-04-06T09:11:04;101725.81;;;8.06;60.05
72061;BME280;59925;52.136;5.420;2023-04-06T09:13:31;101730.59;;;8.16;59.89
72061;BME280;59925;52.136;5.420;2023-04-06T09:16:04;101732.00;;;8.30;59.85
72061;BME280;59925;52.136;5.420;2023-04-06T09:18:33;101734.44;;;8.32;59.62
72061;BME280;59925;52.136;5.420;2023-04-06T09:21:02;101734.44;;;8.55;59.63
72061;BME280;59925;52.136;5.420;2023-04-06T09:23:29;101729.09;;;8.67;59.31
72061;BME280;59925;52.136;5.420;2023-04-06T09:26:16;101730.38;;;8.77;59.23
72061;BME280;59925;52.136;5.420;2023-04-06T09:28:47;101726.56;;;8.72;59.05
72061;BME280;59925;52.136;5.420;2023-04-06T09:31:21;101724.44;;;8.74;58.86
72061;BME280;59925;52.136;5.420;2023-04-06T09:33:48;101726.06;;;8.76;58.89
72061;BME280;59925;52.136;5.420;2023-04-06T09:36:15;101726.28;;;8.86;58.83
72061;BME280;59925;52.136;5.420;2023-04-06T09:38:55;101733.25;;;8.87;58.77
72061;BME280;59925;52.136;5.420;2023-04-06T09:44:21;101729.50;;;9.12;59.36
72061;BME280;59925;52.136;5.420;2023-04-06T09:46:50;101724.53;;;9.20;58.18
72061;BME280;59925;52.136;5.420;2023-04-06T09:49:30;101726.88;;;9.17;58.41
72061;BME280;59925;52.136;5.420;2023-04-06T09:52:02;101731.91;;;9.13;58.60
72061;BME280;59925;52.136;5.420;2023-04-06T09:54:30;101727.59;;;9.24;58.92
72061;BME280;59925;52.136;5.420;2023-04-06T10:00:05;101733.16;;;9.51;59.25
72061;BME280;59925;52.136;5.420;2023-04-06T10:05:52;101729.69;;;9.51;60.54
72061;BME280;59925;52.136;5.420;2023-04-06T10:08:24;101726.94;;;9.63;60.73
72061;BME280;59925;52.136;5.420;2023-04-06T10:10:58;101725.31;;;9.62;60.94
72061;BME280;59925;52.136;5.420;2023-04-06T10:13:25;101729.84;;;9.61;61.26
72061;BME280;59925;52.136;5.420;2023-04-06T10:15:51;101734.22;;;9.68;61.03
72061;BME280;59925;52.136;5.420;2023-04-06T10:18:18;101741.72;;;9.65;61.26
72061;BME280;59925;52.136;5.420;2023-04-06T10:23:41;101731.03;;;9.82;61.51
72061;BME280;59925;52.136;5.420;2023-04-06T10:26:14;101738.00;;;10.01;62.19
72061;BME280;59925;52.136;5.420;2023-04-06T10:28:44;101740.59;;;9.95;61.77
72061;BME280;59925;52.136;5.420;2023-04-06T10:31:11;101729.31;;;9.93;62.37
72061;BME280;59925;52.136;5.420;2023-04-06T10:33:38;101726.56;;;9.88;63.06
72061;BME280;59925;52.136;5.420;2023-04-06T10:38:39;101729.06;;;9.78;64.08
72061;BME280;59925;52.136;5.420;2023-04-06T10:41:11;101733.94;;;9.81;64.22
72061;BME280;59925;52.136;5.420;2023-04-06T10:43:39;101723.38;;;9.74;65.10
72061;BME280;59925;52.136;5.420;2023-04-06T10:46:07;101725.31;;;9.62;66.33
72061;BME280;59925;52.136;5.420;2023-04-06T10:48:43;101729.69;;;9.51;66.98
72061;BME280;59925;52.136;5.420;2023-04-06T10:51:16;101728.63;;;9.52;67.94
72061;BME280;59925;52.136;5.420;2023-04-06T10:53:45;101734.97;;;9.34;68.43
72061;BME280;59925;52.136;5.420;2023-04-06T10:56:15;101729.28;;;9.30;69.52
72061;BME280;59925;52.136;5.420;2023-04-06T10:58:49;101722.59;;;9.16;69.73
72061;BME280;59925;52.136;5.420;2023-04-06T11:01:18;101728.13;;;8.97;70.87
72061;BME280;59925;52.136;5.420;2023-04-06T11:03:50;101722.00;;;8.85;71.99
72061;BME280;59925;52.136;5.420;2023-04-06T11:06:27;101732.19;;;8.88;72.48
72061;BME280;59925;52.136;5.420;2023-04-06T11:08:56;101721.75;;;8.86;73.22
72061;BME280;59925;52.136;5.420;2023-04-06T11:11:24;101717.31;;;8.80;73.70
72061;BME280;59925;52.136;5.420;2023-04-06T11:13:57;101720.84;;;8.69;74.33
72061;BME280;59925;52.136;5.420;2023-04-06T11:16:26;101715.94;;;8.78;74.80
72061;BME280;59925;52.136;5.420;2023-04-06T11:18:55;101717.81;;;8.65;75.38
72061;BME280;59925;52.136;5.420;2023-04-06T11:21:36;101717.84;;;8.53;76.68
72061;BME280;59925;52.136;5.420;2023-04-06T11:24:06;101714.94;;;8.55;76.46
72061;BME280;59925;52.136;5.420;2023-04-06T11:26:49;101709.34;;;8.56;76.54
72061;BME280;59925;52.136;5.420;2023-04-06T11:29:19;101707.38;;;8.52;76.75
72061;BME280;59925;52.136;5.420;2023-04-06T11:31:47;101706.47;;;8.58;77.15
72061;BME280;59925;52.136;5.420;2023-04-06T11:34:19;101704.13;;;8.62;77.54
72061;BME280;59925;52.136;5.420;2023-04-06T11:36:48;101707.13;;;8.65;77.80
72061;BME280;59925;52.136;5.420;2023-04-06T11:39:21;101699.38;;;8.64;77.44
72061;BME280;59925;52.136;5.420;2023-04-06T11:41:49;101713.66;;;8.69;77.83
72061;BME280;59925;52.136;5.420;2023-04-06T11:44:28;101691.00;;;8.48;77.48
72061;BME280;59925;52.136;5.420;2023-04-06T11:46:57;101691.34;;;8.52;78.07
72061;BME280;59925;52.136;5.420;2023-04-06T11:49:30;101682.63;;;8.56;78.50
72061;BME280;59925;52.136;5.420;2023-04-06T11:51:58;101683.56;;;8.50;77.79
72061;BME280;59925;52.136;5.420;2023-04-06T11:54:34;101679.03;;;8.51;78.62
72061;BME280;59925;52.136;5.420;2023-04-06T11:57:02;101688.22;;;8.55;78.77
72061;BME280;59925;52.136;5.420;2023-04-06T11:59:29;101667.63;;;8.55;78.35
72061;BME280;59925;52.136;5.420;2023-04-06T12:01:57;101680.66;;;8.52;78.21
72061;BME280;59925;52.136;5.420;2023-04-06T12:04:24;101677.78;;;8.53;78.55
72061;BME280;59925;52.136;5.420;2023-04-06T12:06:50;101673.09;;;8.72;79.01
72061;BME280;59925;52.136;5.420;2023-04-06T12:09:18;101678.56;;;8.66;78.11
72061;BME280;59925;52.136;5.420;2023-04-06T12:11:44;101675.06;;;8.65;78.98
72061;BME280;59925;52.136;5.420;2023-04-06T12:14:11;101669.63;;;8.60;78.59
72061;BME280;59925;52.136;5.420;2023-04-06T12:16:38;101668.22;;;8.57;79.17
72061;BME280;59925;52.136;5.420;2023-04-06T12:19:05;101661.16;;;8.51;79.49
72061;BME280;59925;52.136;5.420;2023-04-06T12:21:33;101665.09;;;8.49;79.71
72061;BME280;59925;52.136;5.420;2023-04-06T12:24:01;101668.78;;;8.59;79.82
72061;BME280;59925;52.136;5.420;2023-04-06T12:26:30;101659.84;;;8.54;79.80
72061;BME280;59925;52.136;5.420;2023-04-06T12:28:56;101659.72;;;8.61;80.20
72061;BME280;59925;52.136;5.420;2023-04-06T12:31:23;101659.84;;;8.54;79.91
72061;BME280;59925;52.136;5.420;2023-04-06T12:33:52;101651.59;;;8.43;80.02
72061;BME280;59925;52.136;5.420;2023-04-06T12:36:20;101670.66;;;8.35;80.54
72061;BME280;59925;52.136;5.420;2023-04-06T12:38:48;101665.09;;;8.25;81.02
72061;BME280;59925;52.136;5.420;2023-04-06T12:41:15;101648.25;;;8.24;81.02
72061;BME280;59925;52.136;5.420;2023-04-06T12:43:42;101649.75;;;8.20;81.67
72061;BME280;59925;52.136;5.420;2023-04-06T12:46:09;101654.31;;;8.20;81.63
72061;BME280;59925;52.136;5.420;2023-04-06T12:48:36;101651.06;;;8.18;81.36
72061;BME280;59925;52.136;5.420;2023-04-06T12:51:04;101648.97;;;8.20;81.37
72061;BME280;59925;52.136;5.420;2023-04-06T12:53:32;101642.78;;;8.19;81.99
72061;BME280;59925;52.136;5.420;2023-04-06T12:55:59;101646.84;;;8.22;81.93
72061;BME280;59925;52.136;5.420;2023-04-06T12:58:26;101653.34;;;8.26;82.46
72061;BME280;59925;52.136;5.420;2023-04-06T13:00:54;101639.31;;;8.19;82.20
72061;BME280;59925;52.136;5.420;2023-04-06T13:03:22;101632.81;;;8.15;82.07
72061;BME280;59925;52.136;5.420;2023-04-06T13:05:50;101636.41;;;8.20;82.12
72061;BME280;59925;52.136;5.420;2023-04-06T13:08:19;101631.78;;;8.16;81.91
72061;BME280;59925;52.136;5.420;2023-04-06T13:10:50;101634.19;;;8.17;82.13
72061;BME280;59925;52.136;5.420;2023-04-06T13:13:27;101628.28;;;8.15;82.20
72061;BME280;59925;52.136;5.420;2023-04-06T13:15:58;101620.28;;;8.03;82.58
72061;BME280;59925;52.136;5.420;2023-04-06T13:18:25;101627.25;;;8.04;83.37